createdAt,value
2022-09-27T00:01:00.385Z,6.20
2022-09-27T00:03:28.769Z,5.80
2022-09-27T00:06:05.214Z,6.22
2022-09-27T00:08:33.875Z,6.50
2022-09-27T00:11:05.428Z,6.75
2022-09-27T00:13:33.582Z,7.53
2022-09-27T00:16:05.411Z,7.15
2022-09-27T00:18:34.653Z,6.28
2022-09-27T00:21:07.452Z,6.20
2022-09-27T00:23:35.733Z,6.00
2022-09-27T00:26:05.892Z,5.05
2022-09-27T00:28:34.676Z,4.95
2022-09-27T00:31:02.828Z,5.45
2022-09-27T00:33:30.814Z,5.53
2022-09-27T00:36:05.311Z,5.35
2022-09-27T00:38:33.697Z,5.18
2022-09-27T00:41:01.927Z,5.53
2022-09-27T00:43:46.271Z,6.35
2022-09-27T00:46:16.393Z,5.75
2022-09-27T00:48:44.410Z,6.93
2022-09-27T00:51:12.370Z,6.55
2022-09-27T00:53:46.447Z,6.75
2022-09-27T00:56:19.473Z,5.75
2022-09-27T00:58:54.069Z,5.45
2022-09-27T01:01:22.157Z,6.82
2022-09-27T01:03:53.652Z,6.05
2022-09-27T01:06:22.782Z,5.82
2022-09-27T01:08:50.855Z,5.80
2022-09-27T01:11:33.627Z,5.82
2022-09-27T01:14:35.648Z,5.72
2022-09-27T01:17:11.303Z,6.15
2022-09-27T01:20:06.545Z,5.75
2022-09-27T01:22:40.732Z,5.90
2022-09-27T01:25:26.900Z,5.75
2022-09-27T01:28:24.441Z,5.88
2022-09-27T01:31:00.122Z,5.97
2022-09-27T01:33:45.451Z,5.10
2022-09-27T01:36:22.691Z,4.90
2022-09-27T01:39:05.018Z,5.97
2022-09-27T01:41:54.956Z,6.88
2022-09-27T01:44:41.055Z,6.72
2022-09-27T01:47:20.789Z,6.18
2022-09-27T01:50:17.665Z,5.38
2022-09-27T01:52:50.232Z,6.40
2022-09-27T01:55:23.701Z,5.53
2022-09-27T01:58:15.488Z,5.25
2022-09-27T02:00:49.091Z,5.25
2022-09-27T02:03:25.572Z,6.05
2022-09-27T02:06:24.503Z,5.32
2022-09-27T02:09:03.217Z,5.07
2022-09-27T02:11:57.617Z,5.75
2022-09-27T02:14:31.543Z,4.88
2022-09-27T02:17:13.111Z,4.85
2022-09-27T02:19:54.068Z,5.28
2022-09-27T02:22:36.035Z,5.35
2022-09-27T02:25:18.289Z,5.18
2022-09-27T02:27:56.845Z,4.72
2022-09-27T02:30:29.654Z,5.50
2022-09-27T02:33:10.205Z,5.15
2022-09-27T02:35:39.460Z,5.00
2022-09-27T02:38:08.347Z,5.30
2022-09-27T02:40:44.326Z,5.60
2022-09-27T02:43:14.579Z,5.28
2022-09-27T02:45:54.581Z,5.47
2022-09-27T02:48:31.334Z,5.75
2022-09-27T02:51:19.201Z,6.10
2022-09-27T02:54:02.114Z,8.57
2022-09-27T02:56:59.558Z,7.05
2022-09-27T02:59:53.386Z,5.40
2022-09-27T03:02:37.181Z,6.43
2022-09-27T03:05:27.275Z,5.97
2022-09-27T03:07:56.728Z,7.13
2022-09-27T03:10:28.507Z,5.65
2022-09-27T03:12:58.505Z,6.60
2022-09-27T03:15:26.575Z,5.65
2022-09-27T03:18:03.729Z,6.72
2022-09-27T03:20:57.284Z,6.97
2022-09-27T03:23:28.335Z,6.55
2022-09-27T03:25:56.645Z,6.20
2022-09-27T03:28:25.099Z,6.78
2022-09-27T03:30:53.462Z,6.13
2022-09-27T03:33:44.228Z,7.00
2022-09-27T03:36:12.910Z,6.43
2022-09-27T03:38:42.229Z,6.65
2022-09-27T03:41:13.598Z,6.22
2022-09-27T03:43:41.927Z,5.63
2022-09-27T03:46:09.952Z,5.80
2022-09-27T03:48:38.543Z,5.57
2022-09-27T03:51:06.740Z,6.55
2022-09-27T03:53:34.958Z,6.05
2022-09-27T03:56:04.764Z,5.15
2022-09-27T03:58:33.221Z,5.20
2022-09-27T04:01:04.010Z,5.28
2022-09-27T04:03:35.040Z,4.55
2022-09-27T04:06:22.940Z,4.60
2022-09-27T04:08:51.528Z,4.78
2022-09-27T04:11:21.519Z,4.55
2022-09-27T04:13:49.739Z,4.68
2022-09-27T04:16:19.587Z,4.32
2022-09-27T04:19:06.698Z,4.32
2022-09-27T04:21:46.866Z,4.60
2022-09-27T04:24:15.930Z,4.03
2022-09-27T04:26:56.824Z,4.30
2022-09-27T04:29:28.179Z,13.20
2022-09-27T04:32:00.867Z,6.70
2022-09-27T04:35:09.281Z,5.60
2022-09-27T04:37:38.196Z,4.43
2022-09-27T04:40:06.919Z,3.75
2022-09-27T04:42:37.752Z,3.72
2022-09-27T04:45:07.343Z,4.30
2022-09-27T04:47:35.401Z,4.25
2022-09-27T04:50:03.732Z,4.38
2022-09-27T04:52:32.244Z,4.38
2022-09-27T04:55:00.156Z,4.40
2022-09-27T04:57:31.220Z,4.57
2022-09-27T05:00:00.665Z,4.93
2022-09-27T05:02:29.365Z,4.18
2022-09-27T05:05:20.356Z,4.78
2022-09-27T05:07:48.674Z,4.93
2022-09-27T05:10:27.555Z,5.15
2022-09-27T05:12:55.539Z,3.97
2022-09-27T05:15:24.892Z,4.20
2022-09-27T05:18:13.163Z,4.40
2022-09-27T05:20:59.734Z,5.00
2022-09-27T05:23:34.558Z,5.00
2022-09-27T05:26:05.350Z,4.65
2022-09-27T05:28:35.119Z,4.38
2022-09-27T05:31:05.058Z,4.45
2022-09-27T05:33:34.311Z,4.18
2022-09-27T05:36:20.932Z,4.75
2022-09-27T05:38:49.432Z,4.40
2022-09-27T05:41:18.229Z,4.72
2022-09-27T05:43:47.221Z,5.15
2022-09-27T05:46:17.000Z,4.72
2022-09-27T05:48:45.501Z,3.70
2022-09-27T05:51:14.339Z,3.58
2022-09-27T05:53:42.413Z,4.07
2022-09-27T05:56:26.620Z,4.70
2022-09-27T05:59:13.328Z,4.68
2022-09-27T06:02:21.018Z,5.20
2022-09-27T06:05:24.599Z,4.35
2022-09-27T06:08:12.717Z,4.22
2022-09-27T06:10:47.980Z,4.80
2022-09-27T06:13:18.161Z,4.55
2022-09-27T06:15:47.668Z,4.70
2022-09-27T06:18:18.066Z,5.35
2022-09-27T06:20:48.812Z,5.65
2022-09-27T06:23:19.996Z,5.25
2022-09-27T06:25:50.500Z,5.30
2022-09-27T06:28:23.818Z,4.32
2022-09-27T06:30:56.763Z,4.93
2022-09-27T06:33:31.572Z,5.13
2022-09-27T06:36:05.006Z,4.38
2022-09-27T06:38:34.222Z,4.13
2022-09-27T06:41:22.520Z,4.30
2022-09-27T06:44:04.447Z,4.45
2022-09-27T06:46:51.112Z,4.57
2022-09-27T06:49:40.475Z,4.57
2022-09-27T06:52:08.565Z,4.72
2022-09-27T06:54:36.496Z,4.45
2022-09-27T06:57:04.561Z,5.35
2022-09-27T06:59:50.195Z,4.47
2022-09-27T07:02:36.946Z,4.35
2022-09-27T07:05:40.667Z,4.28
2022-09-27T07:08:29.879Z,4.43
2022-09-27T07:11:03.564Z,4.38
2022-09-27T07:13:32.746Z,4.53
2022-09-27T07:16:00.881Z,3.97
2022-09-27T07:18:29.274Z,3.55
2022-09-27T07:21:01.157Z,4.53
2022-09-27T07:23:29.976Z,3.80
2022-09-27T07:26:04.373Z,3.80
2022-09-27T07:28:32.586Z,4.43
2022-09-27T07:31:03.783Z,4.60
2022-09-27T07:33:33.414Z,4.13
2022-09-27T07:36:10.104Z,4.30
2022-09-27T07:38:40.993Z,4.35
2022-09-27T07:41:13.186Z,3.85
2022-09-27T07:43:41.990Z,3.97
2022-09-27T07:46:11.110Z,4.00
2022-09-27T07:49:05.619Z,4.18
2022-09-27T07:51:46.382Z,4.07
2022-09-27T07:54:27.707Z,4.40
2022-09-27T07:57:18.284Z,4.20
2022-09-27T07:59:50.094Z,4.68
2022-09-27T08:02:20.750Z,4.10
2022-09-27T08:04:50.580Z,3.95
2022-09-27T08:07:21.926Z,4.97
2022-09-27T08:09:54.456Z,3.75
2022-09-27T08:12:23.455Z,3.50
2022-09-27T08:14:52.104Z,3.30
2022-09-27T08:17:21.592Z,3.30
2022-09-27T08:20:27.814Z,3.40
2022-09-27T08:23:29.706Z,4.18
2022-09-27T08:26:17.986Z,3.65
2022-09-27T08:29:01.570Z,4.07
2022-09-27T08:31:32.402Z,4.07
2022-09-27T08:34:00.432Z,3.95
2022-09-27T08:36:31.722Z,4.25
2022-09-27T08:39:01.159Z,3.70
2022-09-27T08:41:41.701Z,3.78
2022-09-27T08:44:17.010Z,3.85
2022-09-27T08:47:06.813Z,3.72
2022-09-27T08:49:40.925Z,3.67
2022-09-27T08:52:16.621Z,4.32
2022-09-27T08:54:48.021Z,4.13
2022-09-27T08:57:17.732Z,3.67
2022-09-27T08:59:51.413Z,4.22
2022-09-27T09:02:24.530Z,4.03
2022-09-27T09:04:56.961Z,4.10
2022-09-27T09:07:48.180Z,3.92
2022-09-27T09:10:47.987Z,4.05
2022-09-27T09:13:28.884Z,4.22
2022-09-27T09:16:11.561Z,4.20
2022-09-27T09:19:01.477Z,3.55
2022-09-27T09:22:00.507Z,3.95
2022-09-27T09:24:39.036Z,3.72
2022-09-27T09:27:17.382Z,3.40
2022-09-27T09:30:14.958Z,4.00
2022-09-27T09:33:03.287Z,3.60
2022-09-27T09:35:37.407Z,4.03
2022-09-27T09:38:13.633Z,3.95
2022-09-27T09:40:47.953Z,4.22
2022-09-27T09:43:22.107Z,4.13
2022-09-27T09:45:58.706Z,4.35
2022-09-27T09:48:34.890Z,3.88
2022-09-27T09:51:08.754Z,4.35
2022-09-27T09:53:43.027Z,4.40
2022-09-27T09:56:21.150Z,4.47
2022-09-27T09:58:56.023Z,5.30
2022-09-27T10:01:34.857Z,4.43
2022-09-27T10:04:03.328Z,4.88
2022-09-27T10:06:32.315Z,4.93
2022-09-27T10:09:05.912Z,5.13
2022-09-27T10:11:48.732Z,5.03
2022-09-27T10:14:22.520Z,5.03
2022-09-27T10:16:56.888Z,4.82
2022-09-27T10:19:30.859Z,4.15
2022-09-27T10:22:03.823Z,4.00
2022-09-27T10:24:57.470Z,3.72
2022-09-27T10:27:46.910Z,4.30
2022-09-27T10:30:29.707Z,4.35
2022-09-27T10:33:03.266Z,4.28
2022-09-27T10:35:45.338Z,5.13
2022-09-27T10:38:28.382Z,5.10
2022-09-27T10:41:18.020Z,4.60
2022-09-27T10:43:46.340Z,4.78
2022-09-27T10:46:28.158Z,4.38
2022-09-27T10:49:20.133Z,4.32
2022-09-27T10:51:53.442Z,3.83
2022-09-27T10:54:24.755Z,5.88
2022-09-27T10:56:58.814Z,5.13
2022-09-27T10:59:30.598Z,4.25
2022-09-27T11:02:00.957Z,4.90
2022-09-27T11:04:41.478Z,5.05
2022-09-27T11:07:18.412Z,4.72
2022-09-27T11:09:54.705Z,4.60
2022-09-27T11:12:25.305Z,4.43
2022-09-27T11:14:57.750Z,4.57
2022-09-27T11:17:35.825Z,4.38
2022-09-27T11:20:16.158Z,4.45
2022-09-27T11:23:15.205Z,5.38
2022-09-27T11:25:57.434Z,5.68
2022-09-27T11:28:39.403Z,5.32
2022-09-27T11:31:21.694Z,6.10
2022-09-27T11:34:35.725Z,5.68
2022-09-27T11:37:16.544Z,5.65
2022-09-27T11:40:04.570Z,4.80
2022-09-27T11:42:52.079Z,5.10
2022-09-27T11:45:56.458Z,5.20
2022-09-27T11:48:37.138Z,4.38
2022-09-27T11:51:27.754Z,5.53
2022-09-27T11:54:12.639Z,5.15
2022-09-27T11:56:49.963Z,5.25
2022-09-27T11:59:57.102Z,5.22
2022-09-27T12:02:39.611Z,5.28
2022-09-27T12:05:23.954Z,4.75
2022-09-27T12:08:13.831Z,4.70
2022-09-27T12:10:48.472Z,4.80
2022-09-27T12:13:24.923Z,4.78
2022-09-27T12:15:53.297Z,4.35
2022-09-27T12:18:29.860Z,4.63
2022-09-27T12:21:00.693Z,4.93
2022-09-27T12:23:39.914Z,4.20
2022-09-27T12:26:38.608Z,4.05
2022-09-27T12:29:14.027Z,4.00
2022-09-27T12:31:47.280Z,3.25
2022-09-27T12:34:20.380Z,4.13
2022-09-27T12:36:54.283Z,3.03
2022-09-27T12:39:29.706Z,3.25
2022-09-27T12:42:17.705Z,3.75
2022-09-27T12:44:51.558Z,3.92
2022-09-27T12:47:38.069Z,3.53
2022-09-27T12:50:20.008Z,3.58
2022-09-27T12:52:55.968Z,3.38
2022-09-27T12:55:47.711Z,3.78
2022-09-27T12:58:41.155Z,3.70
2022-09-27T13:01:18.051Z,3.63
2022-09-27T13:04:05.222Z,2.92
2022-09-27T13:06:43.170Z,3.88
2022-09-27T13:09:40.688Z,3.65
2022-09-27T13:12:11.857Z,3.83
2022-09-27T13:14:48.264Z,3.67
2022-09-27T13:17:48.583Z,3.50
2022-09-27T13:20:48.964Z,3.45
2022-09-27T13:23:57.910Z,2.63
2022-09-27T13:26:48.961Z,2.60
2022-09-27T13:29:26.609Z,3.42
2022-09-27T13:32:14.877Z,3.25
2022-09-27T13:35:13.851Z,3.42
2022-09-27T13:37:51.566Z,3.20
2022-09-27T13:40:32.798Z,2.67
2022-09-27T13:43:41.925Z,2.33
2022-09-27T13:46:52.959Z,2.47
2022-09-27T13:49:29.873Z,2.50
2022-09-27T13:52:21.584Z,2.22
2022-09-27T13:55:02.062Z,2.10
2022-09-27T13:57:47.563Z,2.47
2022-09-27T14:00:22.495Z,2.00
2022-09-27T14:03:02.585Z,2.22
2022-09-27T14:05:37.615Z,1.70
2022-09-27T14:08:07.396Z,2.20
2022-09-27T14:10:37.049Z,2.38
2022-09-27T14:13:07.117Z,2.17
2022-09-27T14:15:46.430Z,2.40
2022-09-27T14:18:16.679Z,1.77
2022-09-27T14:20:47.723Z,1.85
2022-09-27T14:23:41.532Z,2.13
2022-09-27T14:26:26.831Z,2.25
2022-09-27T14:28:55.366Z,2.10
2022-09-27T14:31:29.302Z,2.28
2022-09-27T14:34:13.541Z,1.95
2022-09-27T14:37:07.413Z,2.10
2022-09-27T14:39:48.633Z,2.05
2022-09-27T14:42:32.892Z,2.13
2022-09-27T14:45:06.352Z,1.92
2022-09-27T14:47:34.441Z,2.00
2022-09-27T14:50:14.705Z,1.60
2022-09-27T14:52:44.759Z,1.98
2022-09-27T14:55:18.862Z,1.90
2022-09-27T14:57:50.166Z,2.67
2022-09-27T15:00:24.538Z,2.45
2022-09-27T15:02:55.670Z,2.70
2022-09-27T15:05:25.356Z,3.20
2022-09-27T15:07:58.107Z,3.25
2022-09-27T15:10:31.269Z,3.28
2022-09-27T15:13:01.373Z,2.60
2022-09-27T15:15:31.928Z,3.13
2022-09-27T15:18:00.706Z,3.53
2022-09-27T15:20:34.644Z,3.00
2022-09-27T15:23:06.209Z,2.67
2022-09-27T15:25:38.670Z,3.17
2022-09-27T15:28:16.907Z,2.38
2022-09-27T15:30:53.072Z,1.60
2022-09-27T15:33:23.641Z,1.65
2022-09-27T15:35:52.994Z,1.30
2022-09-27T15:38:28.932Z,1.85
2022-09-27T15:41:06.764Z,2.00
2022-09-27T15:43:42.757Z,1.92
2022-09-27T15:46:38.166Z,1.83
2022-09-27T15:49:34.426Z,1.38
2022-09-27T15:52:04.972Z,0.95
2022-09-27T15:54:35.752Z,1.17
2022-09-27T15:57:05.918Z,1.25
2022-09-27T15:59:35.783Z,1.52
2022-09-27T16:02:08.209Z,1.42
2022-09-27T16:04:36.385Z,1.65
2022-09-27T16:07:08.896Z,1.35
2022-09-27T16:09:39.087Z,0.82
2022-09-27T16:12:07.137Z,1.27
2022-09-27T16:14:35.082Z,0.50
2022-09-27T16:17:05.778Z,1.05
2022-09-27T16:19:33.852Z,1.15
2022-09-27T16:22:03.471Z,0.90
2022-09-27T16:24:32.017Z,0.68
2022-09-27T16:27:01.453Z,0.90
2022-09-27T16:29:29.379Z,1.00
2022-09-27T16:31:57.352Z,1.17
2022-09-27T16:34:25.656Z,1.60
2022-09-27T16:36:53.713Z,1.20
2022-09-27T16:39:21.642Z,1.40
2022-09-27T16:41:50.311Z,1.35
2022-09-27T16:44:19.612Z,1.27
2022-09-27T16:46:47.631Z,2.10
2022-09-27T16:49:29.655Z,2.15
2022-09-27T16:52:00.473Z,2.75
2022-09-27T16:54:32.026Z,2.45
2022-09-27T16:57:00.558Z,3.35
2022-09-27T16:59:29.799Z,3.05
2022-09-27T17:01:58.120Z,4.90
2022-09-27T17:04:27.364Z,5.10
2022-09-27T17:06:55.471Z,3.75
2022-09-27T17:09:23.409Z,5.47
2022-09-27T17:11:51.750Z,5.63
2022-09-27T17:14:19.842Z,4.60
2022-09-27T17:16:50.436Z,4.38
2022-09-27T17:19:18.725Z,5.00
2022-09-27T17:21:47.523Z,4.22
2022-09-27T17:24:15.655Z,5.00
2022-09-27T17:26:44.433Z,6.10
2022-09-27T17:29:13.574Z,5.90
2022-09-27T17:31:43.351Z,6.18
2022-09-27T17:34:14.421Z,5.55
2022-09-27T17:36:48.093Z,5.60
2022-09-27T17:39:17.695Z,5.43
2022-09-27T17:41:45.722Z,4.78
2022-09-27T17:44:15.377Z,5.10
2022-09-27T17:46:45.384Z,6.10
2022-09-27T17:49:32.675Z,4.90
2022-09-27T17:52:01.256Z,5.07
2022-09-27T17:54:29.280Z,5.82
2022-09-27T17:56:57.250Z,6.55
2022-09-27T17:59:25.988Z,5.90
2022-09-27T18:01:55.653Z,6.07
2022-09-27T18:04:25.355Z,5.25
2022-09-27T18:06:53.254Z,5.10
2022-09-27T18:09:21.202Z,5.45
2022-09-27T18:11:49.121Z,5.40
2022-09-27T18:14:19.753Z,6.18
2022-09-27T18:16:47.697Z,7.28
2022-09-27T18:19:18.586Z,5.10
2022-09-27T18:21:49.788Z,5.20
2022-09-27T18:24:18.480Z,5.50
2022-09-27T18:26:46.599Z,5.88
2022-09-27T18:29:16.247Z,5.97
2022-09-27T18:31:48.417Z,5.03
2022-09-27T18:34:19.624Z,5.85
2022-09-27T18:36:48.879Z,5.50
2022-09-27T18:39:19.204Z,6.03
2022-09-27T18:41:49.171Z,5.88
2022-09-27T18:44:18.745Z,5.78
2022-09-27T18:46:47.063Z,5.60
2022-09-27T18:49:19.367Z,5.65
2022-09-27T18:51:51.937Z,7.18
2022-09-27T18:54:23.578Z,6.07
2022-09-27T18:56:52.644Z,6.68
2022-09-27T18:59:21.343Z,6.75
2022-09-27T19:01:49.532Z,6.70
2022-09-27T19:04:23.903Z,7.60
2022-09-27T19:06:54.321Z,6.95
2022-09-27T19:09:22.489Z,7.38
2022-09-27T19:11:50.454Z,7.93
2022-09-27T19:14:20.435Z,6.72
2022-09-27T19:16:48.958Z,6.43
2022-09-27T19:19:17.983Z,6.40
2022-09-27T19:21:46.674Z,5.55
2022-09-27T19:24:16.332Z,5.80
2022-09-27T19:26:44.353Z,5.90
2022-09-27T19:29:12.895Z,5.70
2022-09-27T19:31:44.970Z,6.25
2022-09-27T19:34:13.272Z,5.90
2022-09-27T19:36:41.470Z,5.53
2022-09-27T19:39:09.560Z,5.90
2022-09-27T19:41:40.203Z,5.60
2022-09-27T19:44:08.172Z,4.97
2022-09-27T19:46:36.170Z,5.60
2022-09-27T19:49:04.161Z,6.03
2022-09-27T19:51:33.340Z,6.50
2022-09-27T19:54:01.636Z,7.20
2022-09-27T19:56:29.615Z,7.45
2022-09-27T19:58:59.346Z,7.47
2022-09-27T20:01:28.910Z,7.22
2022-09-27T20:03:58.911Z,8.85
2022-09-27T20:06:27.038Z,8.15
2022-09-27T20:08:55.661Z,8.13
2022-09-27T20:11:29.379Z,9.15
2022-09-27T20:13:59.188Z,8.98
2022-09-27T20:16:28.307Z,9.10
2022-09-27T20:18:57.938Z,9.52
2022-09-27T20:21:28.705Z,9.00
2022-09-27T20:23:58.275Z,9.65
2022-09-27T20:26:27.828Z,8.95
2022-09-27T20:28:58.976Z,9.50
2022-09-27T20:31:28.842Z,8.90
2022-09-27T20:33:57.421Z,9.05
2022-09-27T20:36:29.668Z,8.40
2022-09-27T20:39:02.729Z,8.82
2022-09-27T20:41:33.314Z,10.48
2022-09-27T20:44:04.786Z,10.15
2022-09-27T20:46:33.682Z,10.00
2022-09-27T20:49:03.380Z,9.95
2022-09-27T20:51:33.222Z,9.90
2022-09-27T20:54:01.838Z,10.05
2022-09-27T20:56:31.971Z,9.95
2022-09-27T20:59:05.002Z,10.27
2022-09-27T21:01:33.653Z,9.90
2022-09-27T21:04:06.496Z,10.45
2022-09-27T21:06:34.450Z,9.02
2022-09-27T21:09:05.972Z,9.27
2022-09-27T21:11:34.080Z,10.60
2022-09-27T21:14:03.625Z,9.73
2022-09-27T21:16:36.119Z,9.23
2022-09-27T21:19:04.080Z,10.48
2022-09-27T21:21:32.120Z,10.32
2022-09-27T21:24:03.139Z,9.52
2022-09-27T21:26:32.878Z,9.18
2022-09-27T21:29:07.238Z,9.50
2022-09-27T21:31:35.850Z,9.55
2022-09-27T21:34:05.372Z,9.90
2022-09-27T21:36:38.152Z,9.60
2022-09-27T21:39:10.782Z,10.52
2022-09-27T21:41:39.635Z,9.48
2022-09-27T21:44:09.507Z,8.63
2022-09-27T21:46:41.194Z,9.20
2022-09-27T21:49:09.617Z,8.63
2022-09-27T21:51:40.564Z,9.63
2022-09-27T21:54:10.395Z,8.90
2022-09-27T21:56:40.383Z,8.30
2022-09-27T21:59:12.166Z,9.23
2022-09-27T22:01:40.153Z,10.25
2022-09-27T22:04:08.260Z,8.23
2022-09-27T22:06:38.212Z,9.70
2022-09-27T22:09:08.460Z,9.05
2022-09-27T22:11:39.442Z,9.05
2022-09-27T22:14:09.395Z,9.38
2022-09-27T22:16:37.693Z,9.77
2022-09-27T22:19:05.888Z,9.27
2022-09-27T22:21:36.164Z,9.85
2022-09-27T22:24:07.921Z,8.82
2022-09-27T22:26:37.656Z,9.50
2022-09-27T22:29:05.925Z,9.57
2022-09-27T22:31:35.717Z,7.47
2022-09-27T22:34:05.681Z,8.07
2022-09-27T22:36:34.819Z,7.38
2022-09-27T22:39:02.804Z,7.93
2022-09-27T22:41:30.798Z,7.68
2022-09-27T22:43:59.025Z,7.25
2022-09-27T22:46:27.023Z,6.95
2022-09-27T22:48:56.404Z,7.10
2022-09-27T22:51:26.673Z,7.43
2022-09-27T22:53:54.753Z,6.53
2022-09-27T22:56:22.716Z,6.60
2022-09-27T22:58:51.032Z,7.20
2022-09-27T23:01:20.576Z,7.22
2022-09-27T23:03:49.749Z,6.80
2022-09-27T23:06:23.932Z,7.28
2022-09-27T23:08:53.508Z,7.53
2022-09-27T23:11:23.494Z,8.60
2022-09-27T23:13:52.325Z,6.65
2022-09-27T23:16:24.297Z,8.70
2022-09-27T23:18:56.473Z,7.43
2022-09-27T23:21:28.679Z,8.82
2022-09-27T23:23:59.484Z,7.55
2022-09-27T23:26:28.953Z,7.97
2022-09-27T23:28:58.505Z,7.28
2022-09-27T23:31:29.704Z,7.47
2022-09-27T23:33:59.410Z,8.30
2022-09-27T23:36:31.487Z,7.55
2022-09-27T23:39:00.602Z,7.45
2022-09-27T23:41:28.585Z,6.55
2022-09-27T23:43:56.720Z,6.25
2022-09-27T23:46:25.025Z,5.75
2022-09-27T23:48:53.386Z,5.15
2022-09-27T23:51:21.321Z,6.07
2022-09-27T23:53:50.588Z,6.70
2022-09-27T23:56:18.853Z,5.50
2022-09-27T23:58:47.404Z,5.78
